ADDS METAR Data INFO
IDs: Format: Raw Decoded Include TAF

Data at: 1041 UTC 16 Jul 2018

KVWU 161035Z AUTO 30011G17KT 10SM CLR 17/12 A2995 RMK AO2
KVWU 161015Z AUTO 29011G20KT 10SM CLR 17/12 A2994 RMK AO2
KVWU 160955Z AUTO 29015G21KT 10SM CLR 18/12 A2993 RMK AO2
KVWU 160935Z AUTO 28016G23KT 10SM CLR 19/12 A2993 RMK AO2
KVWU 160915Z AUTO 28016G22KT 10SM CLR 19/13 A2993 RMK AO2
KVWU 160855Z AUTO 27016G24KT 10SM CLR 21/13 A2993 RMK AO2
KVWU 160835Z AUTO 26017G25KT 10SM CLR 21/13 A2993 RMK AO2
KVWU 160815Z AUTO 26017G25KT 10SM CLR 21/13 A2993 RMK AO2
KVWU 160755Z AUTO 25016G21KT 10SM CLR 21/13 A2993 RMK AO2
KVWU 160735Z AUTO 25017G23KT 10SM CLR 21/13 A2993 RMK AO2
KVWU 160715Z AUTO 25013G22KT 10SM CLR 21/13 A2994 RMK AO2
KVWU 160655Z AUTO 26016G24KT 10SM CLR 21/13 A2994 RMK AO2
KVWU 160635Z AUTO 25014G21KT 10SM CLR 21/14 A2994 RMK AO2
KVWU 160615Z AUTO 24013G17KT 10SM CLR 21/14 A2994 RMK AO2
KVWU 160555Z AUTO 25013KT 10SM CLR 21/13 A2994 RMK AO2
KVWU 160535Z AUTO 26014G21KT 10SM CLR 22/12 A2995 RMK AO2
KVWU 160515Z AUTO 26011G19KT 10SM CLR 21/13 A2995 RMK AO2
KVWU 160455Z AUTO 26013G18KT 10SM CLR 21/14 A2995 RMK AO2
KVWU 160435Z AUTO 26013KT 10SM CLR 21/14 A2995 RMK AO2
KVWU 160415Z AUTO 26012KT 10SM CLR 22/14 A2995 RMK AO2
KVWU 160355Z AUTO 26013G17KT 10SM CLR 22/13 A2995 RMK AO2
KVWU 160335Z AUTO 27014KT 10SM CLR 22/14 A2995 RMK AO2
KVWU 160315Z AUTO 26012KT 10SM CLR 22/14 A2995 RMK AO2
KVWU 160255Z AUTO 25012G17KT 10SM CLR 22/13 A2995 RMK AO2
KVWU 160235Z AUTO 26012KT 10SM CLR 22/13 A2995 RMK AO2
KVWU 160215Z AUTO 25014G20KT 10SM CLR 22/13 A2994 RMK AO2
KVWU 160155Z AUTO 27013G20KT 10SM CLR 22/12 A2994 RMK AO2
KVWU 160135Z AUTO 27014G18KT 10SM CLR 22/12 A2994 RMK AO2
KVWU 160115Z AUTO 27012G17KT 10SM CLR 22/12 A2994 RMK AO2
KVWU 160055Z AUTO 27013G19KT 10SM SCT050 23/13 A2994 RMK AO2
KVWU 160035Z AUTO 27016G21KT 10SM CLR 23/12 A2995 RMK AO2
KVWU 160015Z AUTO 26010G19KT 10SM SCT055 23/12 A2995 RMK AO2
KVWU 152355Z AUTO 27014G18KT 10SM CLR 23/12 A2995 RMK AO2
KVWU 152336Z AUTO 27014G20KT 10SM CLR 23/12 A2995 RMK AO2
KVWU 152315Z AUTO 28013G19KT 10SM CLR 23/13 A2995 RMK AO2
KVWU 152255Z AUTO 27013G18KT 10SM CLR 24/13 A2995 RMK AO2
KVWU 152235Z AUTO 27011KT 10SM CLR 24/12 A2995 RMK AO2
KVWU 152215Z AUTO 26010G18KT 10SM CLR 24/14 A2995 RMK AO2
KVWU 152155Z AUTO 24011G16KT 10SM CLR 24/14 A2996 RMK AO2
KVWU 152135Z AUTO 25012KT 10SM CLR 24/14 A2996 RMK AO2
KVWU 152115Z AUTO 25011G17KT 10SM CLR 23/14 A2996 RMK AO2
KVWU 152055Z AUTO 26013KT 10SM CLR 23/13 A2997 RMK AO2
KVWU 152035Z AUTO 26012G15KT 10SM CLR 23/14 A2997 RMK AO2
KVWU 152015Z AUTO 26010G14KT 10SM CLR 23/14 A2998 RMK AO2
KVWU 151955Z AUTO 26011G15KT 10SM CLR 22/13 A2999 RMK AO2
KVWU 151935Z AUTO 27010G14KT 10SM CLR 22/12 A2999 RMK AO2
KVWU 151915Z AUTO 27014G17KT 10SM CLR 21/12 A2999 RMK AO2
KVWU 151855Z AUTO 27010G16KT 10SM CLR 21/12 A2999 RMK AO2
KVWU 151835Z AUTO 27010G15KT 10SM CLR 22/13 A2999 RMK AO2
KVWU 151815Z AUTO 25009KT 10SM CLR 22/13 A2999 RMK AO2
KVWU 151755Z AUTO 25008KT 10SM CLR 21/12 A2999 RMK AO2
KVWU 151735Z AUTO 27008G14KT 10SM CLR 22/13 A3000 RMK AO2
KVWU 151715Z AUTO 26009KT 10SM CLR 22/14 A3000 RMK AO2
KVWU 151655Z AUTO 27012G16KT 10SM CLR 21/14 A3001 RMK AO2
KVWU 151635Z AUTO 29009KT 10SM CLR 21/14 A3001 RMK AO2
KVWU 151615Z AUTO 28008G14KT 10SM CLR 21/14 A3000 RMK AO2
KVWU 151555Z AUTO 29006KT 10SM CLR 21/14 A2999 RMK AO2
KVWU 151535Z AUTO 32007KT 10SM CLR 22/14 A2998 RMK AO2
KVWU 151515Z AUTO 31010KT 10SM SCT040 21/13 A2997 RMK AO2
KVWU 151455Z AUTO 30008G15KT 10SM BKN042 21/14 A2998 RMK AO2
KVWU 151435Z AUTO 32004KT 10SM SCT042 21/15 A2997 RMK AO2
KVWU 151415Z AUTO 33005KT 10SM SCT032 BKN042 20/14 A2997 RMK AO2
KVWU 151355Z AUTO 32008KT 10SM BKN030 OVC044 20/14 A2997 RMK AO2
KVWU 151335Z AUTO 33007KT 10SM OVC026 20/16 A2997 RMK AO2
KVWU 151315Z AUTO 35004KT 10SM OVC022 19/17 A2996 RMK AO2
KVWU 151255Z AUTO 34005KT 10SM OVC020 19/17 A2995 RMK AO2
KVWU 151235Z AUTO 34008G17KT 10SM OVC018 19/17 A2996 RMK AO2 LTG DSNT NE AND SW
KVWU 151215Z AUTO 34007KT 10SM OVC018 21/18 A2995 RMK AO2
KVWU 151155Z AUTO 32008KT 10SM SCT020 OVC028 21/19 A2994 RMK AO2 LTG DSNT NE
KVWU 151135Z AUTO 31008G17KT 10SM TS SCT022 BKN026 21/19 A2993 RMK AO2 LTG DSNT NE AND E
KVWU 151115Z AUTO 30012G15KT 10SM -TSRA BKN022 BKN029 OVC060 21/19 A2991 RMK AO2 LTG DSNT NE THRU S
KVWU 151055Z AUTO 25010KT 10SM -TSRA SCT003 OVC020 21/20 A2992 RMK AO2 LTG DSNT ALQDS P0020
KVWU 151035Z AUTO 24011G19KT 10SM -TSRA BKN022 BKN060 OVC080 22/20 A2991 RMK AO2 LTG DSNT ALQDS P0003
KVWU 151015Z AUTO 24015G21KT 10SM -TSRA SCT060 SCT070 BKN080 23/19 A2992 RMK AO2 LTG DSNT ALQDS P0001
KVWU 150955Z AUTO 24011G16KT 10SM VCTS SCT020 SCT032 SCT070 22/19 A2991 RMK AO2 LTG DSNT S AND SW P0002
KVWU 150935Z AUTO 22006KT 10SM RA SCT018 SCT027 SCT060 22/19 A2990 RMK AO2 LTG DSNT SW P0001
KVWU 150915Z AUTO 22006KT 10SM SCT090 23/18 A2990 RMK AO2
KVWU 150855Z AUTO 22007KT 10SM SCT090 23/18 A2991 RMK AO2
KVWU 150835Z AUTO 21007KT 10SM CLR 23/18 A2991 RMK AO2
KVWU 150815Z AUTO 20007KT 10SM CLR 23/18 A2991 RMK AO2
KVWU 150755Z AUTO 21006KT 10SM CLR 23/18 A2992 RMK AO2
KVWU 150735Z AUTO 20006KT 10SM CLR 23/18 A2992 RMK AO2
KVWU 150715Z AUTO 19005KT 10SM SCT075 23/18 A2992 RMK AO2
KVWU 150655Z AUTO 20005KT 10SM SCT075 23/18 A2993 RMK AO2
KVWU 150635Z AUTO 19004KT 10SM BKN075 23/19 A2993 RMK AO2
KVWU 150615Z AUTO 20004KT 10SM BKN075 23/19 A2994 RMK AO2
KVWU 150555Z AUTO 21005KT 10SM SCT070 23/18 A2994 RMK AO2
KVWU 150535Z AUTO 20005KT 10SM CLR 23/18 A2994 RMK AO2
KVWU 150515Z AUTO 18004KT 10SM CLR 22/18 A2993 RMK AO2
KVWU 150455Z AUTO 17003KT 10SM CLR 22/18 A2993 RMK AO2
KVWU 150435Z AUTO 18003KT 10SM CLR 22/18 A2995 RMK AO2
KVWU 150415Z AUTO 19003KT 10SM CLR 23/18 A2995 RMK AO2
KVWU 150355Z AUTO 20003KT 10SM CLR 23/18 A2995 RMK AO2
KVWU 150336Z AUTO 20003KT 10SM CLR 23/18 A2995 RMK AO2
KVWU 150315Z AUTO 19003KT 10SM CLR 23/18 A2994 RMK AO2
KVWU 150255Z AUTO 19003KT 10SM CLR 23/18 A2994 RMK AO2
KVWU 150235Z AUTO 00000KT 10SM CLR 23/18 A2992 RMK AO2
KVWU 150215Z AUTO 18003KT 10SM CLR 24/18 A2991 RMK AO2
KVWU 150155Z AUTO 00000KT 10SM CLR 25/18 A2992 RMK AO2
KVWU 150135Z AUTO 19003KT 10SM CLR 26/18 A2992 RMK AO2
KVWU 150115Z AUTO 20003KT 10SM CLR 27/18 A2992 RMK AO2
KVWU 150055Z AUTO 19003KT 10SM CLR 28/18 A2992 RMK AO2
KVWU 150035Z AUTO 20006KT 10SM CLR 28/18 A2993 RMK AO2
KVWU 150015Z AUTO 19003KT 10SM CLR 28/18 A2993 RMK AO2
KVWU 142355Z AUTO 20005KT 10SM CLR 29/18 A2994 RMK AO2
KVWU 142335Z AUTO 20008KT 10SM CLR 29/18 A2995 RMK AO2
KVWU 142315Z AUTO 20006KT 10SM CLR 29/18 A2995 RMK AO2
KVWU 142255Z AUTO 20008KT 10SM CLR 30/18 A2996 RMK AO2